createdAt,value
2023-02-26T00:01:40.240Z,69.36
2023-02-26T00:04:09.431Z,69.31
2023-02-26T00:06:51.678Z,69.01
2023-02-26T00:09:20.234Z,68.69
2023-02-26T00:11:49.479Z,68.58
2023-02-26T00:14:18.915Z,68.75
2023-02-26T00:16:50.913Z,68.71
2023-02-26T00:19:19.509Z,68.67
2023-02-26T00:21:48.591Z,68.72
2023-02-26T00:24:16.559Z,68.48
2023-02-26T00:26:44.636Z,68.60
2023-02-26T00:29:13.799Z,68.87
2023-02-26T00:31:42.724Z,68.74
2023-02-26T00:34:13.687Z,68.57
2023-02-26T00:36:50.656Z,68.24
2023-02-26T00:39:27.536Z,68.48
2023-02-26T00:41:56.356Z,68.39
2023-02-26T00:44:25.574Z,68.38
2023-02-26T00:47:00.685Z,68.25
2023-02-26T00:49:46.570Z,67.97
2023-02-26T00:52:20.241Z,67.67
2023-02-26T00:54:48.163Z,67.67
2023-02-26T00:57:16.143Z,67.56
2023-02-26T00:59:44.661Z,67.56
2023-02-26T01:02:12.630Z,67.60
2023-02-26T01:04:42.911Z,67.52
2023-02-26T01:07:11.440Z,67.57
2023-02-26T01:09:40.188Z,67.65
2023-02-26T01:12:12.695Z,67.60
2023-02-26T01:14:43.244Z,67.74
2023-02-26T01:17:18.169Z,67.60
2023-02-26T01:19:52.233Z,67.79
2023-02-26T01:22:25.289Z,67.69
2023-02-26T01:25:01.116Z,67.55
2023-02-26T01:27:29.847Z,67.37
2023-02-26T01:29:58.682Z,67.15
2023-02-26T01:32:35.669Z,67.39
2023-02-26T01:35:16.527Z,67.13
2023-02-26T01:37:52.344Z,67.20
2023-02-26T01:41:02.843Z,67.06
2023-02-26T01:43:38.383Z,66.98
2023-02-26T01:46:16.002Z,67.12
2023-02-26T01:48:50.368Z,67.07
2023-02-26T01:51:19.977Z,67.01
2023-02-26T01:53:48.771Z,67.10
2023-02-26T01:56:19.257Z,66.82
2023-02-26T01:58:50.351Z,66.84
2023-02-26T02:01:18.327Z,66.82
2023-02-26T02:03:46.635Z,66.66
2023-02-26T02:06:21.248Z,66.69
2023-02-26T02:08:49.424Z,66.69
2023-02-26T02:11:17.566Z,66.94
2023-02-26T02:13:59.473Z,66.91
2023-02-26T02:16:36.907Z,66.92
2023-02-26T02:19:23.870Z,66.69
2023-02-26T02:22:27.659Z,66.69
2023-02-26T02:25:15.409Z,66.52
2023-02-26T02:27:53.022Z,66.48
2023-02-26T02:30:40.514Z,66.40
2023-02-26T02:33:15.046Z,66.62
2023-02-26T02:35:48.991Z,66.36
2023-02-26T02:38:23.528Z,66.38
2023-02-26T02:40:57.754Z,66.54
2023-02-26T02:43:31.631Z,66.47
2023-02-26T02:46:04.152Z,66.40
2023-02-26T02:48:36.837Z,66.45
2023-02-26T02:51:09.655Z,66.26
2023-02-26T02:53:43.687Z,66.10
2023-02-26T02:56:18.308Z,66.34
2023-02-26T02:58:52.497Z,66.45
2023-02-26T03:01:26.065Z,66.55
2023-02-26T03:03:59.720Z,66.35
2023-02-26T03:06:27.919Z,66.26
2023-02-26T03:08:56.162Z,66.37
2023-02-26T03:11:24.155Z,66.15
2023-02-26T03:13:53.342Z,66.07
2023-02-26T03:16:49.117Z,65.82
2023-02-26T03:19:26.176Z,65.69
2023-02-26T03:22:01.576Z,65.88
2023-02-26T03:24:51.737Z,65.90
2023-02-26T03:27:26.245Z,65.74
2023-02-26T03:29:59.879Z,65.71
2023-02-26T03:32:34.157Z,65.76
2023-02-26T03:35:08.018Z,65.59
2023-02-26T03:37:39.229Z,65.37
2023-02-26T03:40:16.239Z,65.52
2023-02-26T03:42:49.106Z,65.61
2023-02-26T03:45:21.965Z,65.67
2023-02-26T03:47:53.611Z,65.70
2023-02-26T03:50:29.554Z,65.85
2023-02-26T03:53:17.800Z,65.78
2023-02-26T03:55:56.262Z,65.50
2023-02-26T03:58:38.033Z,65.69
2023-02-26T04:01:21.890Z,65.53
2023-02-26T04:03:59.774Z,65.59
2023-02-26T04:06:29.095Z,65.51
2023-02-26T04:08:57.695Z,65.27
2023-02-26T04:11:27.268Z,65.33
2023-02-26T04:13:55.298Z,65.27
2023-02-26T04:16:23.911Z,65.11
2023-02-26T04:18:52.019Z,64.97
2023-02-26T04:21:23.175Z,65.15
2023-02-26T04:23:51.260Z,65.21
2023-02-26T04:26:19.294Z,65.31
2023-02-26T04:28:47.374Z,65.22
2023-02-26T04:31:15.563Z,65.00
2023-02-26T04:33:43.862Z,64.93
2023-02-26T04:36:11.872Z,65.22
2023-02-26T04:38:39.961Z,65.37
2023-02-26T04:41:08.069Z,65.09
2023-02-26T04:43:37.069Z,65.34
2023-02-26T04:46:40.335Z,65.21
2023-02-26T04:49:08.769Z,65.37
2023-02-26T04:51:37.080Z,65.27
2023-02-26T04:54:05.875Z,65.46
2023-02-26T04:56:33.883Z,65.34
2023-02-26T04:59:02.329Z,65.30
2023-02-26T05:01:31.358Z,65.31
2023-02-26T05:04:00.685Z,64.86
2023-02-26T05:06:28.734Z,64.87
2023-02-26T05:08:56.677Z,64.96
2023-02-26T05:11:24.720Z,65.14
2023-02-26T05:13:52.707Z,64.89
2023-02-26T05:16:20.886Z,65.00
2023-02-26T05:18:49.100Z,65.17
2023-02-26T05:21:17.076Z,65.14
2023-02-26T05:23:45.064Z,65.11
2023-02-26T05:26:13.070Z,65.02
2023-02-26T05:28:45.095Z,65.01
2023-02-26T05:31:13.433Z,64.92
2023-02-26T05:33:42.412Z,64.77
2023-02-26T05:36:12.705Z,64.49
2023-02-26T05:38:40.671Z,64.35
2023-02-26T05:41:08.683Z,64.41
2023-02-26T05:43:36.634Z,64.54
2023-02-26T05:46:05.090Z,64.42
2023-02-26T05:48:33.086Z,64.35
2023-02-26T05:51:02.242Z,64.23
2023-02-26T05:53:30.121Z,63.75
2023-02-26T05:55:58.106Z,63.84
2023-02-26T05:58:26.200Z,63.50
2023-02-26T06:00:54.167Z,63.31
2023-02-26T06:03:22.251Z,63.43
2023-02-26T06:05:50.236Z,63.15
2023-02-26T06:08:18.186Z,63.00
2023-02-26T06:10:46.110Z,62.92
2023-02-26T06:13:14.080Z,62.59
2023-02-26T06:15:42.162Z,62.58
2023-02-26T06:18:10.154Z,62.57
2023-02-26T06:20:38.206Z,62.51
2023-02-26T06:23:06.105Z,62.44
2023-02-26T06:25:34.108Z,62.21
2023-02-26T06:28:02.139Z,62.38
2023-02-26T06:30:30.125Z,62.43
2023-02-26T06:32:58.228Z,62.41
2023-02-26T06:35:27.871Z,62.32
2023-02-26T06:37:55.958Z,62.47
2023-02-26T06:40:23.905Z,62.49
2023-02-26T06:42:51.858Z,62.46
2023-02-26T06:45:19.798Z,62.46
2023-02-26T06:47:47.762Z,62.54
2023-02-26T06:50:16.012Z,62.36
2023-02-26T06:52:43.932Z,62.42
2023-02-26T06:55:13.044Z,62.21
2023-02-26T06:57:41.162Z,62.01
2023-02-26T07:00:11.349Z,61.87
2023-02-26T07:02:39.452Z,61.88
2023-02-26T07:05:09.258Z,61.80
2023-02-26T07:07:37.242Z,61.49
2023-02-26T07:10:06.882Z,61.30
2023-02-26T07:12:34.567Z,61.25
2023-02-26T07:15:02.483Z,61.25
2023-02-26T07:17:30.611Z,61.38
2023-02-26T07:19:58.557Z,61.13
2023-02-26T07:22:26.641Z,61.24
2023-02-26T07:24:55.478Z,61.22
2023-02-26T07:27:23.414Z,61.29
2023-02-26T07:29:51.492Z,61.33
2023-02-26T07:32:19.436Z,61.21
2023-02-26T07:34:47.729Z,61.17
2023-02-26T07:37:15.674Z,61.14
2023-02-26T07:39:43.790Z,60.68
2023-02-26T07:42:12.251Z,60.65
2023-02-26T07:44:43.108Z,60.52
2023-02-26T07:47:11.224Z,60.44
2023-02-26T07:49:39.692Z,60.30
2023-02-26T07:52:08.021Z,60.60
2023-02-26T07:54:36.619Z,60.71
2023-02-26T07:57:05.455Z,60.75
2023-02-26T07:59:33.456Z,60.74
2023-02-26T08:02:01.555Z,60.96
2023-02-26T08:04:32.411Z,60.54
2023-02-26T08:07:01.082Z,60.28
2023-02-26T08:09:30.037Z,60.51
2023-02-26T08:11:58.274Z,60.57
2023-02-26T08:14:26.282Z,60.61
2023-02-26T08:16:54.204Z,60.52
2023-02-26T08:19:22.302Z,60.39
2023-02-26T08:21:50.887Z,59.98
2023-02-26T08:24:18.950Z,60.10
2023-02-26T08:26:47.168Z,59.96
2023-02-26T08:29:15.290Z,60.15
2023-02-26T08:31:43.393Z,59.83
2023-02-26T08:34:11.642Z,59.92
2023-02-26T08:36:40.076Z,59.85
2023-02-26T08:39:08.026Z,59.43
2023-02-26T08:41:36.047Z,59.41
2023-02-26T08:44:04.853Z,59.43
2023-02-26T08:46:32.847Z,59.32
2023-02-26T08:49:01.008Z,59.24
2023-02-26T08:51:29.046Z,59.26
2023-02-26T08:53:56.999Z,59.40
2023-02-26T08:56:25.350Z,59.56
2023-02-26T08:58:53.756Z,59.44
2023-02-26T09:01:21.765Z,59.36
2023-02-26T09:03:49.759Z,59.16
2023-02-26T09:06:17.668Z,59.27
2023-02-26T09:08:45.619Z,59.18
2023-02-26T09:11:13.586Z,59.32
2023-02-26T09:13:42.304Z,59.41
2023-02-26T09:16:10.895Z,59.24
2023-02-26T09:18:39.119Z,59.13
2023-02-26T09:21:07.115Z,59.19
2023-02-26T09:23:35.462Z,59.22
2023-02-26T09:26:03.642Z,58.98
2023-02-26T09:28:31.639Z,58.81
2023-02-26T09:30:59.640Z,58.78
2023-02-26T09:33:27.745Z,58.59
2023-02-26T09:35:55.717Z,58.67
2023-02-26T09:38:23.978Z,58.92
2023-02-26T09:40:58.158Z,58.87
2023-02-26T09:43:58.704Z,59.05
2023-02-26T09:46:37.853Z,59.22
2023-02-26T09:49:17.090Z,59.10
2023-02-26T09:51:50.202Z,59.10
2023-02-26T09:54:22.276Z,59.25
2023-02-26T09:56:51.726Z,59.31
2023-02-26T09:59:20.023Z,59.17
2023-02-26T10:01:55.868Z,59.34
2023-02-26T10:04:42.815Z,59.17
2023-02-26T10:07:21.126Z,59.19
2023-02-26T10:10:02.772Z,59.30
2023-02-26T10:12:34.844Z,59.15
2023-02-26T10:15:11.903Z,59.22
2023-02-26T10:17:50.036Z,59.25
2023-02-26T10:20:23.670Z,59.17
2023-02-26T10:23:00.478Z,59.28
2023-02-26T10:25:32.914Z,59.35
2023-02-26T10:28:08.954Z,59.45
2023-02-26T10:30:44.432Z,59.53
2023-02-26T10:33:20.664Z,59.32
2023-02-26T10:35:53.081Z,59.38
2023-02-26T10:38:25.986Z,58.80
2023-02-26T10:41:01.498Z,58.66
2023-02-26T10:43:35.316Z,58.76
2023-02-26T10:46:17.103Z,58.09
2023-02-26T10:49:00.954Z,58.05
2023-02-26T10:51:35.996Z,58.16
2023-02-26T10:54:13.059Z,57.91
2023-02-26T10:56:41.127Z,57.99
2023-02-26T10:59:10.316Z,57.86
2023-02-26T11:01:38.686Z,57.84
2023-02-26T11:04:12.285Z,57.51
2023-02-26T11:06:44.984Z,57.42
2023-02-26T11:09:20.565Z,57.36
2023-02-26T11:11:51.432Z,57.27
2023-02-26T11:14:21.782Z,57.16
2023-02-26T11:16:53.144Z,57.07
2023-02-26T11:19:27.154Z,56.89
2023-02-26T11:21:56.144Z,56.74
2023-02-26T11:24:33.500Z,56.82
2023-02-26T11:27:04.451Z,56.66
2023-02-26T11:29:38.139Z,56.70
2023-02-26T11:32:07.282Z,56.59
2023-02-26T11:34:35.963Z,56.37
2023-02-26T11:37:06.209Z,56.64
2023-02-26T11:39:38.394Z,56.41
2023-02-26T11:42:06.529Z,56.23
2023-02-26T11:44:40.565Z,55.95
2023-02-26T11:47:14.519Z,55.91
2023-02-26T11:49:45.032Z,55.77
2023-02-26T11:52:27.476Z,55.63
2023-02-26T11:55:00.571Z,56.00
2023-02-26T11:57:30.775Z,56.05
2023-02-26T12:00:00.933Z,56.18
2023-02-26T12:02:34.798Z,55.88
2023-02-26T12:05:06.617Z,55.81
2023-02-26T12:07:35.008Z,56.42
2023-02-26T12:10:02.951Z,56.00
2023-02-26T12:12:45.819Z,56.34
2023-02-26T12:15:31.685Z,56.07
2023-02-26T12:18:27.670Z,56.07
2023-02-26T12:21:00.492Z,56.35
2023-02-26T12:24:02.853Z,56.28
2023-02-26T12:26:33.956Z,56.21
2023-02-26T12:29:25.446Z,55.94
2023-02-26T12:32:23.948Z,55.91
2023-02-26T12:35:28.529Z,56.07
2023-02-26T12:38:15.439Z,55.99
2023-02-26T12:41:15.948Z,55.83
2023-02-26T12:43:49.596Z,55.49
2023-02-26T12:46:43.389Z,55.23
2023-02-26T12:49:35.973Z,55.26
2023-02-26T12:52:22.652Z,55.08
2023-02-26T12:55:08.367Z,55.09
2023-02-26T12:57:53.930Z,54.70
2023-02-26T13:00:30.933Z,54.81
2023-02-26T13:03:38.007Z,54.61
2023-02-26T13:06:44.164Z,54.93
2023-02-26T13:09:26.932Z,54.92
2023-02-26T13:12:08.981Z,55.07
2023-02-26T13:14:48.756Z,54.92
2023-02-26T13:17:26.814Z,54.80
2023-02-26T13:19:59.753Z,54.80
2023-02-26T13:22:32.207Z,54.61
2023-02-26T13:25:04.070Z,54.32
2023-02-26T13:27:37.356Z,54.15
2023-02-26T13:30:19.740Z,54.37
2023-02-26T13:32:50.640Z,54.25
2023-02-26T13:35:23.831Z,54.43
2023-02-26T13:37:55.731Z,54.31
2023-02-26T13:40:41.261Z,54.13
2023-02-26T13:43:16.629Z,54.17
2023-02-26T13:45:53.267Z,54.58
2023-02-26T13:48:35.202Z,54.16
2023-02-26T13:51:08.645Z,54.25
2023-02-26T13:53:55.025Z,53.95
2023-02-26T13:56:53.842Z,53.77
2023-02-26T13:59:37.749Z,54.01
2023-02-26T14:02:46.117Z,54.09
2023-02-26T14:05:51.323Z,54.11
2023-02-26T14:08:25.923Z,54.08
2023-02-26T14:10:59.720Z,54.20
2023-02-26T14:13:33.794Z,54.05
2023-02-26T14:16:12.578Z,54.11
2023-02-26T14:18:50.739Z,54.20
2023-02-26T14:21:46.714Z,54.63
2023-02-26T14:24:16.492Z,54.27
2023-02-26T14:26:48.923Z,53.89
2023-02-26T14:29:22.131Z,53.80
2023-02-26T14:32:14.433Z,53.68
2023-02-26T14:34:50.769Z,54.19
2023-02-26T14:37:22.769Z,53.90
2023-02-26T14:39:57.283Z,54.27
2023-02-26T14:42:33.665Z,53.71
2023-02-26T14:45:10.234Z,53.52
2023-02-26T14:47:38.565Z,53.96
2023-02-26T14:50:14.465Z,53.65
2023-02-26T14:52:56.936Z,53.79
2023-02-26T14:55:41.111Z,53.53
2023-02-26T14:58:28.111Z,54.02
2023-02-26T15:01:19.441Z,53.94
2023-02-26T15:04:09.396Z,53.72
2023-02-26T15:06:58.778Z,53.87
2023-02-26T15:09:35.933Z,53.78
2023-02-26T15:12:22.331Z,53.68
2023-02-26T15:15:19.032Z,54.10
2023-02-26T15:18:07.085Z,54.13
2023-02-26T15:20:43.239Z,54.28
2023-02-26T15:23:25.698Z,54.61
2023-02-26T15:25:56.574Z,54.32
2023-02-26T15:28:28.928Z,54.14
2023-02-26T15:31:00.773Z,54.46
2023-02-26T15:33:29.742Z,54.44
2023-02-26T15:35:59.412Z,54.39
2023-02-26T15:38:28.371Z,54.42
2023-02-26T15:41:02.385Z,54.49
2023-02-26T15:43:31.119Z,54.52
2023-02-26T15:46:02.423Z,54.56
2023-02-26T15:48:36.836Z,54.44
2023-02-26T15:51:08.139Z,54.60
2023-02-26T15:53:40.504Z,54.59
2023-02-26T15:56:11.991Z,54.40
2023-02-26T15:58:42.900Z,54.64
2023-02-26T16:01:16.791Z,54.65
2023-02-26T16:03:45.512Z,54.66
2023-02-26T16:06:18.067Z,54.42
2023-02-26T16:08:46.313Z,54.86
2023-02-26T16:11:19.770Z,54.82
2023-02-26T16:13:51.021Z,55.07
2023-02-26T16:16:25.792Z,54.96
2023-02-26T16:18:54.877Z,54.83
2023-02-26T16:21:29.173Z,54.76
2023-02-26T16:23:58.879Z,54.86
2023-02-26T16:26:31.615Z,55.03
2023-02-26T16:29:02.782Z,55.09
2023-02-26T16:31:34.647Z,55.28
2023-02-26T16:34:05.033Z,55.35
2023-02-26T16:36:39.733Z,55.49
2023-02-26T16:39:19.246Z,55.27
2023-02-26T16:42:00.443Z,55.21
2023-02-26T16:44:57.188Z,55.20
2023-02-26T16:47:28.615Z,55.62
2023-02-26T16:49:57.313Z,55.45
2023-02-26T16:52:26.514Z,55.63
2023-02-26T16:54:58.997Z,55.39
2023-02-26T16:57:34.516Z,55.73
2023-02-26T17:00:09.443Z,55.69
2023-02-26T17:02:38.678Z,55.56
2023-02-26T17:05:16.903Z,55.71
2023-02-26T17:07:52.045Z,55.73
2023-02-26T17:10:22.495Z,55.75
2023-02-26T17:12:52.861Z,56.23
2023-02-26T17:15:29.566Z,56.30
2023-02-26T17:17:58.362Z,56.28
2023-02-26T17:20:28.066Z,56.12
2023-02-26T17:22:56.945Z,56.19
2023-02-26T17:25:31.362Z,56.46
2023-02-26T17:27:59.521Z,56.58
2023-02-26T17:30:31.454Z,56.56
2023-02-26T17:33:00.065Z,56.44
2023-02-26T17:35:30.677Z,56.75
2023-02-26T17:38:00.101Z,56.71
2023-02-26T17:40:31.133Z,56.84
2023-02-26T17:42:59.386Z,56.56
2023-02-26T17:45:28.577Z,56.68
2023-02-26T17:47:57.864Z,56.99
2023-02-26T17:50:35.749Z,57.11
2023-02-26T17:53:04.189Z,57.18
2023-02-26T17:55:35.036Z,56.86
2023-02-26T17:58:03.534Z,56.92
2023-02-26T18:00:33.749Z,57.19
2023-02-26T18:03:02.938Z,56.88
2023-02-26T18:05:32.709Z,56.86
2023-02-26T18:08:00.681Z,56.45
2023-02-26T18:10:28.715Z,56.73
2023-02-26T18:12:56.981Z,55.89
2023-02-26T18:15:26.232Z,56.14
2023-02-26T18:17:54.373Z,56.07
2023-02-26T18:20:22.782Z,56.25
2023-02-26T18:22:51.159Z,55.97
2023-02-26T18:25:20.202Z,55.95
2023-02-26T18:27:54.121Z,56.17
2023-02-26T18:30:25.527Z,55.92
2023-02-26T18:32:53.622Z,56.02
2023-02-26T18:35:22.577Z,56.04
2023-02-26T18:37:55.222Z,55.92
2023-02-26T18:40:27.617Z,55.62
2023-02-26T18:42:56.541Z,55.75
2023-02-26T18:45:25.016Z,55.97
2023-02-26T18:47:54.064Z,55.72
2023-02-26T18:50:22.513Z,56.03
2023-02-26T18:52:50.821Z,55.62
2023-02-26T18:55:19.332Z,55.61
2023-02-26T18:57:48.769Z,55.65
2023-02-26T19:00:17.984Z,55.45
2023-02-26T19:02:46.729Z,55.33
2023-02-26T19:05:17.911Z,55.40
2023-02-26T19:07:48.269Z,54.95
2023-02-26T19:10:17.186Z,55.02
2023-02-26T19:12:45.488Z,55.06
2023-02-26T19:15:14.744Z,55.17
2023-02-26T19:17:43.157Z,55.19
2023-02-26T19:20:12.863Z,55.17
2023-02-26T19:22:42.870Z,55.06
2023-02-26T19:25:14.150Z,55.30
2023-02-26T19:27:42.557Z,55.17
2023-02-26T19:30:12.779Z,54.98
2023-02-26T19:32:41.487Z,54.83
2023-02-26T19:35:13.046Z,54.84
2023-02-26T19:37:45.189Z,54.74
2023-02-26T19:40:16.282Z,54.75
2023-02-26T19:42:45.206Z,54.77
2023-02-26T19:45:16.609Z,54.67
2023-02-26T19:47:44.964Z,54.40
2023-02-26T19:50:14.064Z,54.77
2023-02-26T19:52:42.268Z,54.28
2023-02-26T19:55:14.093Z,54.22
2023-02-26T19:57:42.740Z,54.07
2023-02-26T20:00:14.169Z,54.05
2023-02-26T20:02:42.850Z,53.87
2023-02-26T20:05:16.322Z,53.98
2023-02-26T20:08:04.719Z,54.00
2023-02-26T20:10:34.771Z,53.88
2023-02-26T20:13:03.165Z,53.69
2023-02-26T20:15:31.742Z,53.94
2023-02-26T20:18:03.275Z,53.75
2023-02-26T20:20:31.815Z,53.76
2023-02-26T20:22:59.976Z,53.75
2023-02-26T20:25:29.078Z,53.62
2023-02-26T20:27:59.751Z,53.57
2023-02-26T20:30:28.833Z,53.42
2023-02-26T20:32:57.020Z,53.13
2023-02-26T20:35:25.522Z,53.21
2023-02-26T20:37:53.926Z,52.99
2023-02-26T20:40:22.466Z,52.93
2023-02-26T20:42:50.720Z,53.08
2023-02-26T20:45:19.239Z,53.08
2023-02-26T20:47:47.539Z,53.32
2023-02-26T20:50:16.025Z,53.16
2023-02-26T20:52:44.615Z,53.24
2023-02-26T20:55:12.993Z,53.32
2023-02-26T20:57:41.278Z,53.35
2023-02-26T21:00:13.425Z,53.39
2023-02-26T21:02:45.593Z,53.54
2023-02-26T21:05:14.981Z,53.22
2023-02-26T21:07:44.122Z,53.37
2023-02-26T21:10:14.438Z,53.39
2023-02-26T21:12:42.749Z,53.32
2023-02-26T21:15:12.827Z,53.46
2023-02-26T21:17:43.148Z,53.47
2023-02-26T21:20:17.235Z,53.61
2023-02-26T21:22:46.433Z,53.61
2023-02-26T21:25:14.908Z,53.66
2023-02-26T21:27:43.248Z,53.70
2023-02-26T21:30:14.539Z,53.81
2023-02-26T21:32:43.559Z,53.76
2023-02-26T21:35:15.427Z,53.93
2023-02-26T21:37:44.426Z,53.85
2023-02-26T21:40:15.146Z,54.07
2023-02-26T21:42:43.876Z,53.96
2023-02-26T21:48:07.415Z,54.07
2023-02-26T21:50:35.595Z,54.17
2023-02-26T21:53:03.963Z,54.43
2023-02-26T21:55:32.511Z,54.35
2023-02-26T21:58:01.498Z,54.65
2023-02-26T22:00:29.916Z,54.54
2023-02-26T22:02:58.539Z,54.80
2023-02-26T22:05:27.214Z,54.89
2023-02-26T22:07:56.749Z,55.07
2023-02-26T22:10:26.096Z,54.90
2023-02-26T22:12:54.573Z,55.11
2023-02-26T22:15:22.684Z,55.26
2023-02-26T22:17:53.395Z,55.23
2023-02-26T22:20:21.843Z,55.38
2023-02-26T22:22:51.297Z,55.51
2023-02-26T22:25:19.820Z,55.89
2023-02-26T22:27:48.408Z,55.82
2023-02-26T22:30:17.403Z,55.85
2023-02-26T22:32:46.787Z,55.83
2023-02-26T22:35:16.536Z,55.93
2023-02-26T22:37:44.950Z,56.09
2023-02-26T22:40:15.128Z,56.07
2023-02-26T22:42:44.698Z,56.06
2023-02-26T22:45:16.540Z,56.40
2023-02-26T22:47:47.485Z,56.10
2023-02-26T22:50:16.949Z,56.21
2023-02-26T22:52:45.465Z,56.45
2023-02-26T22:55:14.174Z,56.27
2023-02-26T22:57:42.598Z,56.58
2023-02-26T23:00:15.459Z,56.63
2023-02-26T23:02:44.420Z,56.55
2023-02-26T23:05:12.785Z,56.25
2023-02-26T23:07:41.475Z,56.28
2023-02-26T23:10:13.385Z,56.15
2023-02-26T23:12:42.687Z,55.85
2023-02-26T23:15:12.092Z,56.04
2023-02-26T23:17:40.752Z,55.86
2023-02-26T23:20:14.237Z,55.90
2023-02-26T23:22:43.133Z,55.74
2023-02-26T23:25:12.297Z,55.62
2023-02-26T23:27:40.543Z,55.60
2023-02-26T23:30:11.305Z,55.71
2023-02-26T23:32:39.527Z,55.98
2023-02-26T23:35:09.618Z,55.91
2023-02-26T23:37:38.236Z,56.11
2023-02-26T23:40:13.944Z,56.24
2023-02-26T23:42:42.456Z,56.69
2023-02-26T23:45:12.506Z,56.87
2023-02-26T23:47:40.651Z,57.02
2023-02-26T23:50:11.232Z,56.97
2023-02-26T23:52:39.469Z,57.02
2023-02-26T23:55:09.688Z,57.09
2023-02-26T23:57:37.862Z,57.13
